Bodegraven, Netherlands
Current Conditions -  °F | °C
As of 12:55 AM on Saturday 20 Dec 2014 (Local Time) from EHAM Reporting Station
Few Clouds Few Clouds  
Wind Chill: 38°   Ceiling: Unl
Heat Index: 46°   Visibility: 6mi
Dew Point: 37°   Wind: 25mph
Humidity: 71%   Direction: 260°W
Pressure: 30.03"   Gusts: 37mph
Location:  52.08°N, 4.75°E
Report Text: EHAM 192355Z 26022G32KT 230V290 9999 FEW028 08/03 Q1017 NOSIG
Loading
Personal Weather Stations






























Interactive Weather Map New forecast layout! Learn more

10-Day Weather Forecast

Advertisements
Track Severe Weather on mobile